Time;durP1;ratioP1;P1;durP2;ratioP2;P2;SDS_P1;SDS_P2;PMS_P1;PMS_P2;Temp;Humidity;BMP_temperature;BMP_pressure;BME280_temperature;BME280_humidity;BME280_pressure;Samples;Min_cycle;Max_cycle;Signal;HPM_P1;HPM_P2
2022/12/21 00:02:13;;;;;;;37.97;19.13;;;1.10;65.70;;;;;;4754321;29;114617;-80
2022/12/21 00:04:42;;;;;;;43.85;19.17;;;1.10;65.60;;;;;;4755019;29;114384;-80
2022/12/21 00:07:11;;;;;;;40.65;19.58;;;1.10;65.50;;;;;;4739003;29;115037;-80
2022/12/21 00:09:39;;;;;;;39.55;18.75;;;1.10;65.50;;;;;;4753887;29;114715;-80
2022/12/21 00:12:06;;;;;;;40.95;18.58;;;1.10;65.60;;;;;;4737045;29;114704;-80
2022/12/21 00:14:33;;;;;;;36.75;17.60;;;1.10;65.50;;;;;;4751758;29;114743;-81
2022/12/21 00:17:00;;;;;;;37.50;17.67;;;1.10;65.50;;;;;;4752323;29;115191;-81
2022/12/21 00:19:27;;;;;;;37.55;17.67;;;1.10;65.60;;;;;;4753091;29;114827;-80
2022/12/21 00:21:55;;;;;;;39.15;18.73;;;1.10;65.50;;;;;;4739816;29;114347;-80
2022/12/21 00:24:22;;;;;;;43.40;18.67;;;1.00;65.50;;;;;;4751772;29;114441;-81
2022/12/21 00:26:49;;;;;;;47.58;20.45;;;1.00;65.50;;;;;;4723553;29;117091;-81
2022/12/21 00:29:16;;;;;;;42.25;20.70;;;1.00;65.40;;;;;;4738774;29;114588;-81
2022/12/21 00:31:43;;;;;;;44.17;19.88;;;0.90;65.60;;;;;;4749656;29;118604;-81
2022/12/21 00:34:17;;;;;;;39.88;19.45;;;0.90;65.70;;;;;;4741016;29;114459;-81
2022/12/21 00:36:46;;;;;;;41.65;18.45;;;0.90;65.80;;;;;;4738871;29;115152;-80
2022/12/21 00:39:14;;;;;;;44.22;20.08;;;0.90;65.80;;;;;;4738567;29;114843;-81
2022/12/21 00:41:42;;;;;;;45.67;19.65;;;0.90;65.70;;;;;;4740750;29;114444;-81
2022/12/21 00:44:13;;;;;;;42.55;20.00;;;0.90;65.60;;;;;;4737140;29;114657;-81
2022/12/21 00:46:40;;;;;;;42.97;19.50;;;0.70;65.80;;;;;;4738009;29;115237;-80
2022/12/21 00:49:09;;;;;;;41.78;19.35;;;0.70;65.90;;;;;;4737076;29;114807;-81
2022/12/21 00:51:36;;;;;;;45.83;19.65;;;0.70;66.20;;;;;;4723495;29;114789;-80
2022/12/21 00:54:04;;;;;;;39.95;19.27;;;0.70;66.40;;;;;;4736056;29;114473;-80
2022/12/21 00:56:31;;;;;;;43.42;20.23;;;0.80;66.30;;;;;;4738174;29;115592;-80
2022/12/21 00:58:58;;;;;;;41.10;19.70;;;0.80;66.20;;;;;;4737864;29;114783;-80
2022/12/21 01:01:28;;;;;;;39.60;17.95;;;0.90;66.20;;;;;;4738349;29;114809;-80
2022/12/21 01:03:56;;;;;;;44.53;19.73;;;0.90;66.30;;;;;;4750693;29;114989;-80
2022/12/21 01:06:33;;;;;;;47.83;22.05;;;0.90;66.30;;;;;;4751587;29;115296;-80
2022/12/21 01:09:05;;;;;;;49.33;21.13;;;0.90;66.30;;;;;;4738746;29;116548;-80
2022/12/21 01:11:33;;;;;;;42.47;20.42;;;0.80;66.20;;;;;;4751633;29;114745;-80
2022/12/21 01:14:00;;;;;;;37.40;18.48;;;0.80;66.20;;;;;;4721030;29;114356;-80
2022/12/21 01:16:30;;;;;;;43.25;20.05;;;0.80;66.30;;;;;;4739352;29;115218;-80
2022/12/21 01:18:59;;;;;;;38.63;18.00;;;0.80;66.40;;;;;;4739310;29;115194;-80
2022/12/21 01:21:28;;;;;;;44.85;19.17;;;0.80;66.40;;;;;;4721484;29;114688;-80
2022/12/21 01:23:56;;;;;;;38.47;18.50;;;0.80;66.50;;;;;;4723611;29;114702;-80
2022/12/21 01:26:23;;;;;;;37.75;17.42;;;0.80;66.50;;;;;;4738064;29;116724;-79
2022/12/21 01:28:51;;;;;;;41.03;18.33;;;0.80;66.40;;;;;;4739419;29;115186;-80
2022/12/21 01:31:18;;;;;;;40.03;18.92;;;0.80;66.30;;;;;;4736315;29;114412;-80
2022/12/21 01:33:46;;;;;;;41.25;18.48;;;0.80;66.40;;;;;;4753954;29;114672;-80
2022/12/21 01:36:15;;;;;;;41.85;18.17;;;0.80;66.30;;;;;;4722823;29;115224;-80
2022/12/21 01:38:44;;;;;;;40.78;18.52;;;0.80;66.20;;;;;;4723255;29;115275;-80
2022/12/21 01:41:20;;;;;;;32.38;16.83;;;0.80;66.20;;;;;;4739679;29;114796;-80
2022/12/21 01:44:01;;;;;;;38.00;17.70;;;0.80;66.30;;;;;;4737941;29;114563;-80
2022/12/21 01:46:42;;;;;;;38.08;17.60;;;0.80;66.50;;;;;;4722655;29;115064;-80
2022/12/21 01:49:28;;;;;;;34.00;17.57;;;0.90;66.40;;;;;;4721494;29;114858;-80
2022/12/21 01:52:05;;;;;;;33.92;16.80;;;0.90;66.30;;;;;;4724414;29;115977;-79
2022/12/21 01:54:39;;;;;;;39.05;18.17;;;0.80;66.40;;;;;;4723707;29;115808;-80
2022/12/21 01:57:07;;;;;;;;;;;0.90;66.40;;;;;;4707457;29;117886;-80
2022/12/21 01:59:43;;;;;;;31.73;14.82;;;0.80;66.10;;;;;;4735687;29;115123;-80
2022/12/21 02:02:15;;;;;;;36.65;17.60;;;0.70;66.30;;;;;;4736251;29;114372;-80
2022/12/21 02:04:43;;;;;;;38.17;17.33;;;0.70;66.30;;;;;;4739307;29;114439;-80
2022/12/21 02:07:10;;;;;;;38.95;16.85;;;0.70;66.30;;;;;;4725305;29;115113;-80
2022/12/21 02:09:41;;;;;;;38.40;16.98;;;0.70;66.40;;;;;;4737802;29;114955;-81
2022/12/21 02:12:12;;;;;;;36.58;17.80;;;0.70;66.40;;;;;;4742373;29;114413;-81
2022/12/21 02:14:41;;;;;;;37.25;17.75;;;0.70;66.40;;;;;;4738930;29;114385;-81
2022/12/21 02:17:29;;;;;;;39.42;17.77;;;0.70;66.50;;;;;;4740953;29;115063;-80
2022/12/21 02:20:18;;;;;;;38.63;17.83;;;0.70;66.50;;;;;;4741383;29;114602;-80
2022/12/21 02:23:25;;;;;;;36.85;17.60;;;0.70;66.60;;;;;;4742170;29;114434;-81
2022/12/21 02:26:23;;;;;;;36.75;17.88;;;0.60;66.60;;;;;;4742436;29;114317;-80
2022/12/21 02:29:28;;;;;;;37.97;17.98;;;0.60;66.70;;;;;;4741318;29;117979;-81
2022/12/21 02:32:28;;;;;;;;;;;0.60;66.60;;;;;;4704152;29;115608;-81
2022/12/21 02:35:32;;;;;;;38.03;16.70;;;0.50;66.50;;;;;;4688388;29;114748;-82
2022/12/21 02:38:04;;;;;;;40.78;17.17;;;0.50;66.80;;;;;;4739698;29;115187;-82
2022/12/21 02:41:00;;;;;;;39.88;16.95;;;0.50;66.70;;;;;;4739841;29;115509;-81
2022/12/21 02:46:58;;;;;;;43.92;18.67;;;0.40;66.70;;;;;;4741388;29;114429;-82
2022/12/21 02:49:58;;;;;;;39.47;18.13;;;0.40;66.70;;;;;;4739470;29;114624;-82
2022/12/21 02:52:37;;;;;;;38.58;17.00;;;0.30;66.70;;;;;;4738188;29;115132;-81
2022/12/21 02:55:05;;;;;;;43.35;18.88;;;0.30;66.70;;;;;;4710012;29;114716;-81
2022/12/21 02:57:38;;;;;;;44.42;18.10;;;0.20;66.70;;;;;;4725363;29;114802;-82
2022/12/21 03:00:09;;;;;;;43.72;19.15;;;0.20;66.90;;;;;;4724585;29;114605;-81
2022/12/21 03:06:20;;;;;;;40.38;19.65;;;0.10;66.90;;;;;;4726858;29;115964;-81
2022/12/21 03:09:34;;;;;;;41.17;18.85;;;0.20;67.10;;;;;;4725502;29;114650;-81
2022/12/21 03:12:25;;;;;;;38.95;16.83;;;0.10;67.10;;;;;;4740555;29;114506;-80
2022/12/21 03:15:32;;;;;;;40.63;18.55;;;0.10;67.10;;;;;;4739220;29;115226;-80
2022/12/21 03:18:08;;;;;;;41.63;18.75;;;0.10;67.10;;;;;;4738774;29;114742;-81
2022/12/21 03:21:01;;;;;;;40.90;19.25;;;0.20;67.10;;;;;;4754382;29;115361;-80
2022/12/21 03:23:50;;;;;;;40.58;17.92;;;0.10;67.00;;;;;;4725426;29;114478;-80
2022/12/21 03:26:31;;;;;;;43.15;17.95;;;0.10;67.20;;;;;;4738488;29;115304;-81
2022/12/21 03:28:58;;;;;;;37.88;17.55;;;0.10;67.10;;;;;;4739095;29;118272;-80
2022/12/21 03:31:31;;;;;;;38.80;17.73;;;0.10;67.30;;;;;;4740290;29;114651;-80
2022/12/21 03:34:18;;;;;;;35.83;16.98;;;0.20;67.40;;;;;;4726128;29;114624;-80
2022/12/21 03:36:54;;;;;;;34.65;16.33;;;0.20;67.40;;;;;;4739721;29;115124;-80
2022/12/21 03:39:22;;;;;;;38.90;18.33;;;0.20;67.40;;;;;;4725860;29;114753;-80
2022/12/21 03:42:17;;;;;;;37.65;17.67;;;0.20;67.40;;;;;;4740601;29;114602;-79
2022/12/21 03:44:52;;;;;;;39.38;16.92;;;0.20;67.50;;;;;;4740497;29;114488;-79
2022/12/21 03:47:28;;;;;;;37.97;16.27;;;0.30;67.50;;;;;;4710283;29;115703;-79
2022/12/21 03:49:58;;;;;;;35.30;17.17;;;0.30;67.60;;;;;;4722302;29;114951;-80
2022/12/21 03:53:08;;;;;;;35.70;16.30;;;0.40;67.50;;;;;;4740058;29;114389;-80
2022/12/21 03:55:36;;;;;;;37.13;15.23;;;0.40;67.50;;;;;;4741379;29;114596;-79
2022/12/21 03:58:04;;;;;;;30.70;15.77;;;0.40;67.50;;;;;;4722424;29;115177;-79
2022/12/21 04:00:59;;;;;;;41.38;18.00;;;0.50;67.50;;;;;;4753952;29;114707;-79
2022/12/21 04:03:34;;;;;;;34.28;16.55;;;0.50;67.60;;;;;;4737434;29;114752;-79
2022/12/21 04:06:07;;;;;;;;;;;0.50;67.60;;;;;;4722838;29;114474;-80
2022/12/21 04:08:34;;;;;;;40.95;16.00;;;0.50;67.40;;;;;;4737628;29;116861;-79
2022/12/21 04:11:01;;;;;;;37.90;17.55;;;0.50;67.40;;;;;;4724554;29;115116;-79
2022/12/21 04:13:29;;;;;;;33.45;16.88;;;0.50;67.50;;;;;;4741228;29;114305;-79
2022/12/21 04:16:05;;;;;;;34.30;16.15;;;0.50;67.50;;;;;;4740579;29;114942;-79
2022/12/21 04:21:19;;;;;;;36.10;16.42;;;0.60;67.60;;;;;;4736683;29;114729;-80
2022/12/21 04:29:18;;;;;;;39.70;17.35;;;0.60;67.40;;;;;;4737024;29;118219;-79
2022/12/21 04:31:45;;;;;;;43.70;20.30;;;0.60;67.40;;;;;;4740012;29;115248;-79
2022/12/21 04:34:12;;;;;;;47.78;19.65;;;0.60;67.40;;;;;;4740678;29;114526;-80
2022/12/21 04:39:25;;;;;;;38.60;17.25;;;0.60;67.50;;;;;;4739961;29;115420;-79
2022/12/21 04:41:53;;;;;;;44.88;18.05;;;0.50;67.50;;;;;;4739207;29;114675;-80
2022/12/21 04:44:21;;;;;;;40.10;18.83;;;0.50;67.50;;;;;;4739423;29;114453;-80
2022/12/21 04:46:48;;;;;;;50.03;21.48;;;0.50;67.50;;;;;;4739470;29;114492;-79
2022/12/21 04:49:15;;;;;;;46.65;22.40;;;0.60;67.50;;;;;;4752970;29;115610;-79
2022/12/21 04:51:42;;;;;;;48.55;22.63;;;0.50;67.60;;;;;;4739789;29;115012;-80
2022/12/21 04:54:09;;;;;;;47.67;22.02;;;0.60;67.60;;;;;;4739245;29;114457;-79
2022/12/21 04:56:36;;;;;;;43.13;21.25;;;0.50;67.60;;;;;;4754581;29;114415;-79
2022/12/21 04:59:04;;;;;;;42.95;21.40;;;0.50;67.70;;;;;;4739662;29;115102;-79
2022/12/21 05:01:31;;;;;;;40.15;18.75;;;0.50;67.70;;;;;;4753723;29;114701;-79
2022/12/21 05:03:58;;;;;;;45.28;20.13;;;0.50;67.60;;;;;;4723129;29;114585;-79
2022/12/21 05:06:26;;;;;;;47.55;21.20;;;0.50;67.70;;;;;;4751528;29;114453;-79
2022/12/21 05:08:53;;;;;;;55.50;22.63;;;0.50;67.70;;;;;;4739304;29;115132;-79
2022/12/21 05:11:22;;;;;;;56.55;23.02;;;0.60;67.80;;;;;;4753004;29;115700;-79
2022/12/21 05:13:49;;;;;;;60.97;25.35;;;0.50;67.80;;;;;;4740391;29;114303;-80
2022/12/21 05:16:19;;;;;;;60.50;23.45;;;0.50;67.90;;;;;;4752494;29;114807;-80
2022/12/21 05:18:50;;;;;;;69.07;25.00;;;0.50;67.90;;;;;;4736514;29;115149;-79
2022/12/21 05:21:17;;;;;;;70.53;25.88;;;0.60;67.90;;;;;;4739225;29;114704;-79
2022/12/21 05:23:45;;;;;;;68.18;24.67;;;0.60;67.90;;;;;;4753818;29;114930;-79
2022/12/21 05:26:12;;;;;;;58.90;24.60;;;0.60;67.90;;;;;;4740140;29;118437;-79
2022/12/21 05:28:44;;;;;;;53.55;22.75;;;0.60;67.90;;;;;;4739254;29;115300;-80
2022/12/21 05:31:13;;;;;;;58.60;23.77;;;0.60;68.00;;;;;;4738770;29;114705;-79
2022/12/21 05:33:41;;;;;;;53.38;22.10;;;0.60;68.00;;;;;;4738643;29;114823;-80
2022/12/21 05:36:11;;;;;;;48.22;20.67;;;0.60;67.90;;;;;;4736281;29;114462;-80
2022/12/21 05:38:38;;;;;;;51.42;21.30;;;0.60;68.00;;;;;;4737955;29;115714;-80
2022/12/21 05:41:05;;;;;;;53.35;22.15;;;0.60;68.00;;;;;;4757381;29;114715;-79
2022/12/21 05:43:34;;;;;;;54.65;22.38;;;0.60;68.00;;;;;;4757155;29;114541;-79
2022/12/21 05:46:08;;;;;;;41.67;19.08;;;0.60;68.00;;;;;;4729810;29;114515;-79
2022/12/21 05:48:35;;;;;;;37.08;19.00;;;0.50;68.10;;;;;;4728898;29;116462;-80
2022/12/21 05:51:10;;;;;;;44.28;18.95;;;0.60;68.10;;;;;;4755836;29;114836;-80
2022/12/21 05:53:41;;;;;;;43.15;18.50;;;0.60;68.30;;;;;;4743147;29;114299;-80
2022/12/21 05:56:08;;;;;;;41.28;19.38;;;0.60;68.30;;;;;;4760381;29;114723;-80
2022/12/21 05:58:36;;;;;;;42.20;17.67;;;0.60;68.30;;;;;;4759019;29;115176;-79
2022/12/21 06:01:05;;;;;;;38.28;17.63;;;0.60;68.30;;;;;;4744568;29;116830;-80
2022/12/21 06:03:33;;;;;;;40.55;17.98;;;0.60;68.30;;;;;;4745316;29;114352;-79
2022/12/21 06:06:06;;;;;;;42.10;18.20;;;0.60;68.20;;;;;;4743929;29;114498;-78
2022/12/21 06:08:34;;;;;;;40.33;18.23;;;0.60;68.30;;;;;;4758381;29;115218;-79
2022/12/21 06:11:05;;;;;;;42.40;18.65;;;0.60;68.20;;;;;;4728807;29;114674;-79
2022/12/21 06:13:33;;;;;;;40.97;18.67;;;0.60;68.20;;;;;;4744999;29;114338;-79
2022/12/21 06:16:14;;;;;;;41.08;19.75;;;0.60;68.20;;;;;;4744240;29;114621;-80
2022/12/21 06:18:42;;;;;;;41.72;18.35;;;0.60;68.30;;;;;;4743272;29;118038;-79
2022/12/21 06:21:10;;;;;;;40.58;18.42;;;0.60;68.40;;;;;;4728259;29;116088;-79
2022/12/21 06:23:38;;;;;;;40.90;17.55;;;0.60;68.50;;;;;;4743839;29;114904;-79
2022/12/21 06:26:06;;;;;;;35.65;18.80;;;0.60;68.60;;;;;;4745281;29;114354;-79
2022/12/21 06:28:34;;;;;;;37.95;18.30;;;0.60;68.60;;;;;;4728071;29;117500;-79
2022/12/21 06:31:10;;;;;;;46.45;18.95;;;0.60;68.60;;;;;;4740861;29;117551;-79
2022/12/21 06:33:37;;;;;;;44.03;19.67;;;0.70;68.70;;;;;;4752907;29;114498;-80
2022/12/21 06:36:05;;;;;;;41.13;19.50;;;0.70;68.60;;;;;;4737396;29;114742;-80
2022/12/21 06:38:34;;;;;;;46.10;21.20;;;0.80;68.50;;;;;;4709597;29;115725;-80
2022/12/21 06:41:08;;;;;;;43.58;19.55;;;0.70;68.40;;;;;;4736830;29;115766;-81
2022/12/21 06:43:36;;;;;;;42.10;18.50;;;0.60;68.50;;;;;;4740268;29;114671;-80
2022/12/21 06:46:09;;;;;;;40.90;18.90;;;0.60;68.70;;;;;;4723826;29;114489;-80
2022/12/21 06:48:36;;;;;;;43.25;18.80;;;0.60;68.90;;;;;;4738701;29;115578;-80
2022/12/21 06:51:10;;;;;;;43.75;20.17;;;0.60;69.00;;;;;;4735092;29;115280;-80
2022/12/21 06:53:38;;;;;;;42.45;19.13;;;0.60;69.00;;;;;;4751094;29;114453;-80
2022/12/21 06:56:13;;;;;;;47.58;21.83;;;0.70;69.00;;;;;;4734556;29;117345;-79
2022/12/21 06:58:50;;;;;;;45.47;20.55;;;0.80;69.80;;;;;;4720051;29;115234;-79
2022/12/21 07:01:22;;;;;;;46.13;20.52;;;0.80;70.30;;;;;;4737534;29;117476;-79
2022/12/21 07:03:49;;;;;;;43.03;19.38;;;0.90;70.20;;;;;;4732289;29;114686;-80
2022/12/21 07:06:18;;;;;;;46.25;19.60;;;1.10;69.70;;;;;;4735493;29;114705;-81
2022/12/21 07:08:47;;;;;;;41.65;19.98;;;1.10;69.50;;;;;;4733048;29;115397;-80
2022/12/21 07:11:20;;;;;;;39.85;20.20;;;1.10;69.30;;;;;;4733504;29;117933;-79
2022/12/21 07:13:48;;;;;;;45.43;20.37;;;1.10;69.20;;;;;;4750235;29;114838;-79
2022/12/21 07:16:16;;;;;;;49.03;21.25;;;1.10;69.20;;;;;;4736407;29;114422;-79
2022/12/21 07:18:43;;;;;;;44.92;22.42;;;1.20;69.20;;;;;;4734704;29;118182;-80
2022/12/21 07:21:15;;;;;;;66.63;29.30;;;1.20;69.10;;;;;;4738506;29;114679;-79
2022/12/21 07:23:43;;;;;;;60.22;27.08;;;1.10;69.10;;;;;;4739615;29;114638;-80
2022/12/21 07:26:16;;;;;;;64.20;30.02;;;1.10;69.00;;;;;;4741532;29;114521;-78
2022/12/21 07:28:43;;;;;;;62.67;29.15;;;1.10;69.10;;;;;;4752295;29;116762;-79
2022/12/21 07:31:13;;;;;;;60.38;28.35;;;1.10;69.10;;;;;;4724318;29;119024;-79
2022/12/21 07:33:40;;;;;;;55.90;27.27;;;1.10;69.20;;;;;;4735287;29;114374;-79
2022/12/21 07:36:08;;;;;;;52.38;25.35;;;1.10;69.20;;;;;;4740039;29;117622;-80
2022/12/21 07:38:37;;;;;;;45.60;23.38;;;1.10;69.20;;;;;;4740649;29;117868;-79
2022/12/21 07:41:07;;;;;;;46.42;23.35;;;1.20;69.30;;;;;;4723508;29;115923;-80
2022/12/21 07:43:34;;;;;;;49.70;24.30;;;1.20;69.40;;;;;;4722611;29;114858;-79
2022/12/21 07:46:28;;;;;;;46.05;22.10;;;1.30;69.40;;;;;;4712667;29;114447;-81
2022/12/21 07:48:57;;;;;;;46.22;22.73;;;1.30;69.40;;;;;;4735756;29;115209;-79
2022/12/21 07:51:25;;;;;;;46.63;21.45;;;1.40;69.40;;;;;;4737331;29;114704;-80
2022/12/21 07:53:52;;;;;;;45.85;21.75;;;1.50;69.40;;;;;;4752022;29;114551;-78
2022/12/21 07:56:19;;;;;;;47.83;21.38;;;1.50;69.30;;;;;;4740360;29;114507;-80
2022/12/21 07:58:47;;;;;;;40.00;21.08;;;1.60;69.30;;;;;;4738711;29;123950;-81
2022/12/21 08:01:16;;;;;;;46.25;21.15;;;1.70;69.20;;;;;;4740524;29;117084;-79
2022/12/21 08:03:45;;;;;;;35.22;18.17;;;1.70;69.10;;;;;;4755200;29;114564;-80
2022/12/21 08:06:13;;;;;;;36.25;17.77;;;1.70;68.90;;;;;;4737669;29;119664;-79
2022/12/21 08:08:40;;;;;;;41.22;18.88;;;1.70;68.90;;;;;;4752470;29;115061;-79
2022/12/21 08:11:14;;;;;;;40.22;19.45;;;1.70;68.90;;;;;;4735984;29;114899;-79
2022/12/21 08:13:41;;;;;;;36.83;17.77;;;1.70;68.90;;;;;;4725425;29;114525;-81
2022/12/21 08:16:11;;;;;;;40.92;19.40;;;1.70;68.80;;;;;;4753989;29;115603;-80
2022/12/21 08:18:38;;;;;;;41.05;19.25;;;1.70;68.80;;;;;;4750257;29;115157;-80
2022/12/21 08:21:05;;;;;;;44.95;21.25;;;1.70;68.70;;;;;;4719156;29;114769;-81
2022/12/21 08:23:33;;;;;;;40.47;19.73;;;1.70;68.70;;;;;;4738748;29;114401;-80
2022/12/21 08:26:02;;;;;;;40.00;20.98;;;1.80;68.70;;;;;;4751328;29;114493;-81
2022/12/21 08:28:30;;;;;;;39.90;20.15;;;1.80;68.70;;;;;;4721850;29;115310;-81
2022/12/21 08:31:12;;;;;;;46.72;21.35;;;1.70;68.70;;;;;;4733832;29;114657;-79
2022/12/21 08:33:43;;;;;;;43.08;21.30;;;1.80;68.70;;;;;;4738523;29;114555;-80
2022/12/21 08:36:16;;;;;;;42.30;19.88;;;1.80;68.60;;;;;;4740425;29;114727;-80
2022/12/21 08:38:44;;;;;;;44.30;19.65;;;1.80;68.60;;;;;;4738172;29;116032;-80
2022/12/21 08:41:31;;;;;;;45.25;19.92;;;1.90;68.60;;;;;;4738279;29;114728;-79
2022/12/21 08:43:58;;;;;;;46.10;21.75;;;1.80;68.60;;;;;;4738597;29;114626;-80
2022/12/21 08:46:26;;;;;;;44.17;21.63;;;1.90;68.70;;;;;;4751133;29;114685;-80
2022/12/21 08:48:53;;;;;;;46.33;20.50;;;1.90;68.70;;;;;;4731633;29;116059;-80
2022/12/21 08:51:21;;;;;;;44.97;21.38;;;1.90;68.70;;;;;;4736729;29;114822;-80
2022/12/21 08:53:48;;;;;;;46.22;20.25;;;1.90;68.60;;;;;;4719993;29;114819;-81
2022/12/21 08:56:18;;;;;;;39.70;20.33;;;1.90;68.50;;;;;;4736971;29;114641;-82
2022/12/21 08:58:46;;;;;;;45.50;20.58;;;1.90;68.60;;;;;;4736184;29;116380;-81
2022/12/21 09:01:20;;;;;;;40.30;19.40;;;2.00;68.70;;;;;;4750399;29;116641;-81
2022/12/21 09:03:47;;;;;;;35.17;18.35;;;2.00;68.80;;;;;;4730607;29;114795;-80
2022/12/21 09:06:15;;;;;;;38.53;19.05;;;2.00;68.70;;;;;;4736601;29;115906;-81
2022/12/21 09:08:42;;;;;;;45.83;21.38;;;2.10;68.80;;;;;;4732618;29;115155;-80
2022/12/21 09:11:11;;;;;;;44.55;21.23;;;2.10;68.80;;;;;;4738027;29;118161;-80
2022/12/21 09:13:39;;;;;;;47.47;19.65;;;2.10;68.70;;;;;;4739936;29;114621;-81
2022/12/21 09:16:22;;;;;;;46.60;22.35;;;2.10;68.70;;;;;;4738681;29;114639;-81
2022/12/21 09:18:50;;;;;;;49.97;23.38;;;2.20;68.80;;;;;;4721472;29;115291;-80
2022/12/21 09:21:19;;;;;;;54.70;23.45;;;2.20;68.70;;;;;;4735046;29;115006;-82
2022/12/21 09:23:46;;;;;;;51.25;24.95;;;2.20;68.70;;;;;;4737958;29;114252;-81
2022/12/21 09:26:15;;;;;;;45.85;22.63;;;2.20;68.60;;;;;;4736621;29;114471;-81
2022/12/21 09:28:42;;;;;;;47.88;22.98;;;2.20;68.50;;;;;;4737343;29;119288;-81
2022/12/21 09:31:17;;;;;;;47.65;23.08;;;2.30;68.60;;;;;;4738684;29;114730;-81
2022/12/21 09:33:55;;;;;;;47.08;22.52;;;2.40;68.60;;;;;;4736514;29;114606;-81
2022/12/21 09:36:23;;;;;;;49.53;23.38;;;2.30;68.60;;;;;;4723864;29;114890;-81
2022/12/21 09:38:51;;;;;;;49.40;22.83;;;2.40;68.60;;;;;;4737112;29;115774;-82
2022/12/21 09:41:27;;;;;;;49.53;22.77;;;2.40;68.50;;;;;;4738434;29;117130;-81
2022/12/21 09:44:07;;;;;;;39.67;20.02;;;2.40;68.50;;;;;;4739534;29;114783;-80
2022/12/21 09:46:37;;;;;;;44.28;22.27;;;2.40;68.50;;;;;;4738302;29;114522;-81
2022/12/21 09:49:10;;;;;;;40.05;19.15;;;2.50;68.40;;;;;;4722349;29;115135;-82
2022/12/21 09:51:37;;;;;;;39.50;19.67;;;2.50;68.40;;;;;;4721394;29;114937;-81
2022/12/21 09:54:15;;;;;;;42.15;20.75;;;2.50;68.30;;;;;;4751754;29;114473;-80
2022/12/21 09:56:45;;;;;;;43.40;20.58;;;2.50;68.40;;;;;;4737378;29;114602;-80
2022/12/21 09:59:14;;;;;;;35.65;19.05;;;2.50;68.30;;;;;;4720891;29;115161;-80
2022/12/21 10:02:18;;;;;;;39.22;19.02;;;2.50;68.20;;;;;;4707204;29;114850;-80
2022/12/21 10:04:55;;;;;;;36.13;18.98;;;2.60;68.20;;;;;;4739106;29;114412;-81
2022/12/21 10:08:17;;;;;;;41.78;20.83;;;2.50;68.10;;;;;;4739235;29;114630;-79
2022/12/21 10:11:02;;;;;;;39.60;20.73;;;2.60;68.10;;;;;;4751470;29;115215;-80
2022/12/21 10:13:38;;;;;;;40.00;20.88;;;2.50;68.10;;;;;;4750787;29;115285;-81
2022/12/21 10:16:49;;;;;;;36.38;18.60;;;2.60;68.20;;;;;;4752341;29;114451;-80
2022/12/21 10:19:55;;;;;;;45.80;20.80;;;2.60;68.00;;;;;;4746303;29;114814;-81
2022/12/21 10:22:32;;;;;;;38.90;19.75;;;2.60;67.90;;;;;;4749424;29;115676;-81
2022/12/21 10:25:03;;;;;;;37.92;19.63;;;2.60;68.00;;;;;;4735276;29;115292;-80
2022/12/21 10:27:50;;;;;;;44.03;20.92;;;2.50;67.90;;;;;;4724382;29;114507;-81
2022/12/21 10:30:18;;;;;;;40.22;20.55;;;2.60;68.00;;;;;;4740429;29;114585;-81
2022/12/21 10:32:47;;;;;;;49.50;22.10;;;2.70;68.00;;;;;;4724298;29;115313;-81
2022/12/21 10:35:17;;;;;;;46.33;22.08;;;2.60;68.00;;;;;;4738812;29;114986;-81
2022/12/21 10:37:51;;;;;;;45.20;21.75;;;2.70;68.00;;;;;;4753955;29;114549;-81
2022/12/21 10:40:28;;;;;;;44.03;23.67;;;2.70;68.00;;;;;;4755637;29;114936;-81
2022/12/21 10:42:56;;;;;;;49.10;22.00;;;2.70;67.90;;;;;;4753288;29;115844;-81
2022/12/21 10:45:24;;;;;;;41.03;21.17;;;2.70;67.90;;;;;;4753648;29;114913;-81
2022/12/21 10:47:53;;;;;;;47.78;22.10;;;2.70;67.80;;;;;;4740022;29;114507;-82
2022/12/21 10:50:31;;;;;;;41.92;21.23;;;2.70;67.80;;;;;;4738278;29;114578;-81
2022/12/21 10:52:59;;;;;;;45.75;22.30;;;2.70;67.80;;;;;;4751412;29;115335;-80
2022/12/21 10:55:32;;;;;;;40.28;21.05;;;2.70;67.70;;;;;;4740879;29;116755;-82
2022/12/21 10:58:35;;;;;;;46.40;22.90;;;2.70;67.70;;;;;;4739896;29;114329;-81
2022/12/21 11:01:05;;;;;;;41.78;21.77;;;2.80;67.60;;;;;;4725167;29;116681;-81
2022/12/21 11:03:36;;;;;;;49.90;22.23;;;2.70;67.70;;;;;;4722865;29;117226;-81
2022/12/21 11:06:17;;;;;;;42.28;20.73;;;2.70;67.70;;;;;;4738406;29;114724;-82
2022/12/21 11:08:51;;;;;;;48.83;23.50;;;2.70;67.80;;;;;;4738921;29;118806;-82
2022/12/21 11:11:40;;;;;;;46.47;22.58;;;2.70;67.70;;;;;;4722431;29;116789;-82
2022/12/21 11:14:16;;;;;;;45.70;21.67;;;2.80;67.90;;;;;;4736576;29;118884;-81
2022/12/21 11:16:44;;;;;;;44.65;22.02;;;2.70;67.80;;;;;;4738698;29;115322;-82
2022/12/21 11:19:15;;;;;;;42.33;22.77;;;2.80;67.80;;;;;;4723538;29;114973;-81
2022/12/21 11:21:53;;;;;;;46.95;23.08;;;2.80;67.90;;;;;;4738152;29;119253;-81
2022/12/21 11:24:37;;;;;;;46.50;23.13;;;2.80;67.90;;;;;;4736398;29;116249;-81
2022/12/21 11:27:28;;;;;;;43.78;21.60;;;2.90;67.70;;;;;;4738337;29;117969;-80
2022/12/21 11:30:19;;;;;;;45.00;24.80;;;2.80;67.90;;;;;;4737659;29;114800;-80
2022/12/21 11:32:47;;;;;;;49.20;25.25;;;2.90;67.90;;;;;;4723555;29;115194;-81
2022/12/21 11:35:34;;;;;;;52.08;25.20;;;2.80;67.90;;;;;;4736438;29;115231;-82
2022/12/21 11:38:10;;;;;;;51.08;25.17;;;2.90;67.90;;;;;;4722947;29;114830;-81
2022/12/21 11:40:38;;;;;;;46.28;24.13;;;2.90;67.90;;;;;;4708301;29;114678;-80
2022/12/21 11:43:14;;;;;;;54.30;25.80;;;2.90;67.90;;;;;;4723552;29;114829;-81
2022/12/21 11:46:04;;;;;;;49.45;24.80;;;2.90;67.90;;;;;;4753574;29;115736;-81
2022/12/21 11:49:35;;;;;;;43.83;23.35;;;3.00;68.00;;;;;;4736349;29;114808;-80
2022/12/21 11:52:30;;;;;;;42.65;21.83;;;3.00;68.00;;;;;;4747316;29;114546;-81
2022/12/21 11:55:28;;;;;;;45.58;23.00;;;2.90;67.90;;;;;;4754883;29;115094;-82
2022/12/21 11:58:54;;;;;;;48.72;22.15;;;2.90;67.90;;;;;;4738174;29;116433;-82
2022/12/21 12:01:33;;;;;;;43.35;22.25;;;2.90;67.90;;;;;;4739008;29;114709;-82
2022/12/21 12:04:31;;;;;;;44.00;22.05;;;2.90;67.80;;;;;;4738583;29;114493;-83
2022/12/21 12:07:20;;;;;;;43.15;22.75;;;2.90;67.70;;;;;;4735900;29;114599;-81
2022/12/21 12:10:18;;;;;;;46.85;24.13;;;2.80;67.60;;;;;;4739492;29;115184;-81
2022/12/21 12:13:27;;;;;;;45.10;23.45;;;2.80;67.80;;;;;;4736788;29;114510;-83
2022/12/21 12:16:22;;;;;;;;;;;2.70;67.90;;;;;;4719863;29;114595;-82
2022/12/21 12:19:22;;;;;;;47.90;23.45;;;2.70;67.80;;;;;;4739866;29;114728;-82
2022/12/21 12:21:57;;;;;;;44.53;22.52;;;2.70;67.90;;;;;;4732058;29;115349;-82
2022/12/21 12:24:46;;;;;;;48.65;23.23;;;2.70;67.90;;;;;;4737481;29;114693;-84
2022/12/21 12:27:55;;;;;;;47.10;23.30;;;2.70;68.00;;;;;;4738454;29;116559;-82
2022/12/21 12:30:23;;;;;;;51.35;24.00;;;2.70;68.10;;;;;;4740358;29;114571;-82
2022/12/21 12:33:44;;;;;;;52.30;25.80;;;2.60;68.20;;;;;;4725931;29;115694;-82
2022/12/21 12:37:06;;;;;;;48.70;24.23;;;2.70;68.20;;;;;;4712352;29;114705;-82
2022/12/21 12:39:56;;;;;;;45.83;23.85;;;2.70;68.20;;;;;;4720501;29;114693;-82
2022/12/21 12:42:33;;;;;;;;;;;2.70;68.30;;;;;;4738504;29;114648;-82
2022/12/21 12:45:18;;;;;;;52.15;24.55;;;2.60;68.10;;;;;;4727147;29;115354;-83
2022/12/21 12:48:16;;;;;;;52.65;24.30;;;2.70;68.40;;;;;;4722451;29;117418;-81
2022/12/21 12:51:07;;;;;;;49.35;25.23;;;2.70;68.50;;;;;;4740040;29;115035;-82
2022/12/21 12:54:07;;;;;;;46.30;23.40;;;2.70;68.40;;;;;;4740057;29;114451;-82
2022/12/21 12:56:47;;;;;;;48.05;24.05;;;2.70;68.50;;;;;;4739972;29;115032;-81
2022/12/21 12:59:48;;;;;;;52.13;25.17;;;2.70;68.50;;;;;;4752633;29;114683;-81
2022/12/21 13:02:35;;;;;;;52.95;25.15;;;2.70;68.70;;;;;;4704488;29;114638;-82
2022/12/21 13:05:14;;;;;;;52.08;24.95;;;2.60;68.70;;;;;;4738163;29;114491;-81
2022/12/21 13:08:55;;;;;;;46.85;22.80;;;2.60;68.70;;;;;;4738617;29;116117;-81
2022/12/21 13:11:40;;;;;;;57.05;25.95;;;2.70;68.90;;;;;;4708385;29;114868;-82
2022/12/21 13:14:40;;;;;;;49.63;25.27;;;2.60;68.90;;;;;;4722628;29;114470;-80
2022/12/21 13:17:27;;;;;;;54.08;26.00;;;2.60;68.90;;;;;;4723653;29;114998;-81
2022/12/21 13:19:54;;;;;;;48.95;23.65;;;2.60;69.00;;;;;;4736854;29;116195;-84
2022/12/21 13:22:21;;;;;;;54.25;24.30;;;2.60;68.90;;;;;;4737381;29;116435;-82
2022/12/21 13:25:00;;;;;;;50.10;26.80;;;2.60;69.00;;;;;;4722649;29;114786;-82
2022/12/21 13:27:31;;;;;;;54.58;26.65;;;2.50;69.20;;;;;;4709142;29;114600;-82
2022/12/21 13:30:05;;;;;;;54.92;25.25;;;2.50;69.20;;;;;;4720784;29;115203;-82